Time,TemperatureF,DewpointF,PressureIn,WindDirection,WindDirectionDegrees,WindSpeedMPH,WindSpeedGustMPH,Humidity,HourlyPrecipIn,Conditions,Clouds,dailyrainin,SoftwareType,DateUTC
2013-04-19 00:00:00,69.0,64.3,30.01,SSE,159,7.0,7.0,85,0.00,,,0.00,Wunderground v.1.15,2013-04-19 04:00:00,
2013-04-19 00:05:00,68.9,64.2,30.01,SSE,152,7.0,7.0,85,0.00,,,0.00,Wunderground v.1.15,2013-04-19 04:05:00,
2013-04-19 00:10:00,68.8,64.4,30.00,SSE,150,7.0,7.0,86,0.00,,,0.00,Wunderground v.1.15,2013-04-19 04:10:00,
2013-04-19 00:15:00,68.7,64.3,30.01,SSE,165,7.0,7.0,86,0.00,,,0.00,Wunderground v.1.15,2013-04-19 04:15:00,
2013-04-19 00:20:00,68.8,64.4,30.00,SSE,147,7.0,9.0,86,0.00,,,0.00,Wunderground v.1.15,2013-04-19 04:20:00,
2013-04-19 00:25:00,68.6,64.6,30.00,SE,141,7.0,9.0,87,0.00,,,0.00,Wunderground v.1.15,2013-04-19 04:25:00,
2013-04-19 00:30:00,68.5,64.5,30.00,SSE,164,7.0,7.0,87,0.00,,,0.00,Wunderground v.1.15,2013-04-19 04:30:00,
2013-04-19 00:40:00,68.5,64.5,30.00,SSE,153,7.0,7.0,87,0.00,,,0.00,Wunderground v.1.15,2013-04-19 04:40:00,
2013-04-19 00:45:00,68.4,64.7,29.99,SSE,165,7.0,10.0,88,0.00,,,0.00,Wunderground v.1.15,2013-04-19 04:45:00,
2013-04-19 00:50:00,68.4,64.7,29.99,SSE,168,8.0,8.0,88,0.00,,,0.00,Wunderground v.1.15,2013-04-19 04:50:00,
2013-04-19 01:00:00,68.3,64.9,29.98,SE,141,8.0,11.0,89,0.00,,,0.00,Wunderground v.1.15,2013-04-19 05:00:00,
2013-04-19 01:10:00,68.2,64.8,29.99,South,180,8.0,10.0,89,0.00,,,0.00,Wunderground v.1.15,2013-04-19 05:10:00,
2013-04-19 01:15:00,68.1,64.7,29.99,SSE,167,7.0,10.0,89,0.00,,,0.00,Wunderground v.1.15,2013-04-19 05:15:00,
2013-04-19 01:20:00,68.1,64.7,29.98,South,174,7.0,9.0,89,0.00,,,0.00,Wunderground v.1.15,2013-04-19 05:20:00,
2013-04-19 01:25:00,68.1,65.1,29.98,South,172,7.0,11.0,90,0.00,,,0.00,Wunderground v.1.15,2013-04-19 05:25:00,
2013-04-19 01:35:00,68.0,65.0,29.98,SE,141,9.0,10.0,90,0.00,,,0.00,Wunderground v.1.15,2013-04-19 05:35:00,
2013-04-19 01:40:00,67.9,64.9,29.97,South,171,9.0,10.0,90,0.00,,,0.00,Wunderground v.1.15,2013-04-19 05:40:00,
2013-04-19 01:50:00,67.8,65.1,29.98,South,171,8.0,8.0,91,0.00,,,0.00,Wunderground v.1.15,2013-04-19 05:50:00,
2013-04-19 02:00:00,67.7,65.0,29.97,SSE,154,7.0,7.0,91,0.00,,,0.00,Wunderground v.1.15,2013-04-19 06:00:00,
2013-04-19 02:05:00,67.6,64.9,29.97,SSW,203,7.0,11.0,91,0.00,,,0.00,Wunderground v.1.15,2013-04-19 06:05:00,
2013-04-19 02:15:00,67.6,64.9,29.96,SSE,163,8.0,8.0,91,0.00,,,0.00,Wunderground v.1.15,2013-04-19 06:15:00,
2013-04-19 02:25:00,67.4,65.0,29.96,South,169,7.0,9.0,92,0.00,,,0.00,Wunderground v.1.15,2013-04-19 06:25:00,
2013-04-19 02:30:00,67.4,65.0,29.96,South,175,7.0,9.0,92,0.00,,,0.00,Wunderground v.1.15,2013-04-19 06:30:00,
2013-04-19 02:40:00,67.3,64.9,29.95,SSE,153,7.0,7.0,92,0.00,,,0.00,Wunderground v.1.15,2013-04-19 06:40:00,
2013-04-19 02:50:00,67.1,65.0,29.95,South,169,8.0,8.0,93,0.00,,,0.00,Wunderground v.1.15,2013-04-19 06:50:00,
2013-04-19 02:55:00,67.1,65.0,29.94,SSE,165,8.0,8.0,93,0.00,,,0.00,Wunderground v.1.15,2013-04-19 06:55:00,
2013-04-19 03:05:00,66.9,64.8,29.94,South,172,7.0,10.0,93,0.00,,,0.00,Wunderground v.1.15,2013-04-19 07:05:00,
2013-04-19 03:10:00,66.8,64.7,29.94,SSE,161,7.0,9.0,93,0.00,,,0.00,Wunderground v.1.15,2013-04-19 07:10:00,
2013-04-19 03:20:00,66.6,64.5,29.94,SSE,159,6.0,6.0,93,0.00,,,0.00,Wunderground v.1.15,2013-04-19 07:20:00,
2013-04-19 03:25:00,66.6,64.8,29.94,SSE,148,6.0,6.0,94,0.00,,,0.00,Wunderground v.1.15,2013-04-19 07:25:00,
2013-04-19 03:35:00,66.4,64.6,29.93,South,171,6.0,6.0,94,0.00,,,0.00,Wunderground v.1.15,2013-04-19 07:35:00,
2013-04-19 03:40:00,66.3,64.5,29.93,SSE,155,5.0,5.0,94,0.00,,,0.00,Wunderground v.1.15,2013-04-19 07:40:00,
2013-04-19 03:45:00,66.2,64.4,29.93,SSE,168,5.0,5.0,94,0.00,,,0.00,Wunderground v.1.15,2013-04-19 07:45:00,
2013-04-19 03:55:00,66.1,64.3,29.93,SSE,158,4.0,7.0,94,0.00,,,0.00,Wunderground v.1.15,2013-04-19 07:55:00,
2013-04-19 04:05:00,66.1,64.6,29.92,SSE,157,5.0,7.0,95,0.00,,,0.00,Wunderground v.1.15,2013-04-19 08:05:00,
2013-04-19 04:10:00,66.0,64.5,29.92,SSE,157,5.0,11.0,95,0.00,,,0.00,Wunderground v.1.15,2013-04-19 08:10:00,
2013-04-19 04:20:00,66.0,64.5,29.92,SSE,164,6.0,6.0,95,0.00,,,0.00,Wunderground v.1.15,2013-04-19 08:20:00,
2013-04-19 04:25:00,66.0,64.5,29.92,South,182,6.0,6.0,95,0.00,,,0.00,Wunderground v.1.15,2013-04-19 08:25:00,
2013-04-19 04:35:00,65.9,64.4,29.91,SSE,162,6.0,6.0,95,0.00,,,0.00,Wunderground v.1.15,2013-04-19 08:35:00,
2013-04-19 04:40:00,65.8,64.3,29.91,SSE,168,5.0,7.0,95,0.00,,,0.00,Wunderground v.1.15,2013-04-19 08:40:00,
2013-04-19 04:45:00,65.8,64.3,29.91,SSW,210,6.0,7.0,95,0.00,,,0.00,Wunderground v.1.15,2013-04-19 08:45:00,
2013-04-19 04:55:00,65.8,64.3,29.91,SSE,155,6.0,7.0,95,0.00,,,0.00,Wunderground v.1.15,2013-04-19 08:55:00,
2013-04-19 05:05:00,65.6,64.1,29.91,SSW,199,5.0,6.0,95,0.00,,,0.00,Wunderground v.1.15,2013-04-19 09:05:00,
2013-04-19 05:10:00,65.6,64.1,29.91,South,174,5.0,5.0,95,0.00,,,0.00,Wunderground v.1.15,2013-04-19 09:10:00,
2013-04-19 05:20:00,65.5,64.0,29.91,SSE,168,5.0,5.0,95,0.00,,,0.00,Wunderground v.1.15,2013-04-19 09:20:00,
2013-04-19 05:25:00,65.4,63.9,29.91,SSE,163,4.0,5.0,95,0.00,,,0.00,Wunderground v.1.15,2013-04-19 09:25:00,
2013-04-19 05:35:00,65.3,63.8,29.91,SSE,161,4.0,5.0,95,0.00,,,0.00,Wunderground v.1.15,2013-04-19 09:35:00,
2013-04-19 05:40:00,65.3,64.1,29.90,South,182,4.0,6.0,96,0.00,,,0.00,Wunderground v.1.15,2013-04-19 09:40:00,
2013-04-19 05:50:00,65.4,64.2,29.91,SSE,167,6.0,6.0,96,0.00,,,0.00,Wunderground v.1.15,2013-04-19 09:50:00,
2013-04-19 05:55:00,65.4,64.2,29.91,SSE,159,5.0,6.0,96,0.00,,,0.00,Wunderground v.1.15,2013-04-19 09:55:00,
2013-04-19 06:05:00,65.7,64.5,29.91,South,169,7.0,7.0,96,0.00,,,0.00,Wunderground v.1.15,2013-04-19 10:05:00,
2013-04-19 06:10:00,65.8,64.6,29.91,South,191,7.0,7.0,96,0.00,,,0.00,Wunderground v.1.15,2013-04-19 10:10:00,
2013-04-19 06:20:00,65.9,64.7,29.91,South,180,6.0,6.0,96,0.00,,,0.00,Wunderground v.1.15,2013-04-19 10:20:00,
2013-04-19 06:30:00,66.0,64.8,29.91,SSE,164,7.0,11.0,96,0.00,,,0.00,Wunderground v.1.15,2013-04-19 10:30:00,
2013-04-19 06:40:00,66.0,64.5,29.91,South,179,8.0,10.0,95,0.00,,,0.00,Wunderground v.1.15,2013-04-19 10:40:00,
2013-04-19 06:45:00,66.1,64.6,29.91,South,183,8.0,10.0,95,0.00,,,0.00,Wunderground v.1.15,2013-04-19 10:45:00,
2013-04-19 06:50:00,66.1,64.6,29.91,South,174,7.0,9.0,95,0.00,,,0.00,Wunderground v.1.15,2013-04-19 10:50:00,
2013-04-19 06:55:00,66.0,64.5,29.91,South,171,6.0,9.0,95,0.00,,,0.00,Wunderground v.1.15,2013-04-19 10:55:00,
2013-04-19 07:05:00,66.1,64.6,29.92,South,188,7.0,10.0,95,0.00,,,0.00,Wunderground v.1.15,2013-04-19 11:05:00,
2013-04-19 07:15:00,66.0,64.5,29.92,SSW,205,5.0,6.0,95,0.00,,,0.00,Wunderground v.1.15,2013-04-19 11:15:00,
2013-04-19 07:20:00,66.0,64.5,29.93,South,172,5.0,5.0,95,0.00,,,0.00,Wunderground v.1.15,2013-04-19 11:20:00,
2013-04-19 07:30:00,66.2,65.0,29.93,SSE,152,5.0,10.0,96,0.00,,,0.00,Wunderground v.1.15,2013-04-19 11:30:00,
2013-04-19 07:35:00,66.3,64.8,29.93,SSE,153,6.0,10.0,95,0.00,,,0.00,Wunderground v.1.15,2013-04-19 11:35:00,
2013-04-19 07:40:00,66.5,65.0,29.93,South,172,7.0,9.0,95,0.00,,,0.00,Wunderground v.1.15,2013-04-19 11:40:00,
2013-04-19 07:50:00,67.0,65.5,29.93,SSE,160,6.0,6.0,95,0.00,,,0.00,Wunderground v.1.15,2013-04-19 11:50:00,
2013-04-19 07:55:00,67.3,65.5,29.93,SSW,194,6.0,6.0,94,0.00,,,0.00,Wunderground v.1.15,2013-04-19 11:55:00,
2013-04-19 08:05:00,68.0,65.9,29.93,SE,137,7.0,9.0,93,0.00,,,0.00,Wunderground v.1.15,2013-04-19 12:05:00,
2013-04-19 08:15:00,68.8,66.4,29.93,South,189,7.0,12.0,92,0.00,,,0.00,Wunderground v.1.15,2013-04-19 12:15:00,
2013-04-19 08:25:00,68.8,66.1,29.93,South,186,9.0,13.0,91,0.00,,,0.00,Wunderground v.1.15,2013-04-19 12:25:00,
2013-04-19 08:35:00,69.1,66.0,29.93,South,175,7.0,9.0,90,0.00,,,0.00,Wunderground v.1.15,2013-04-19 12:35:00,
2013-04-19 08:40:00,69.5,66.4,29.94,South,187,5.0,10.0,90,0.00,,,0.00,Wunderground v.1.15,2013-04-19 12:40:00,
2013-04-19 08:45:00,69.6,66.2,29.93,South,179,5.0,10.0,89,0.00,,,0.00,Wunderground v.1.15,2013-04-19 12:45:00,
2013-04-19 08:50:00,69.8,66.4,29.93,SW,216,5.0,5.0,89,0.00,,,0.00,Wunderground v.1.15,2013-04-19 12:50:00,
2013-04-19 09:00:00,70.1,66.4,29.94,SSE,156,5.0,5.0,88,0.00,,,0.00,Wunderground v.1.15,2013-04-19 13:00:00,
2013-04-19 09:10:00,70.4,66.3,29.93,South,190,6.0,8.0,87,0.00,,,0.00,Wunderground v.1.15,2013-04-19 13:10:00,
2013-04-19 09:15:00,70.8,66.4,29.93,SSE,167,6.0,8.0,86,0.00,,,0.00,Wunderground v.1.15,2013-04-19 13:15:00,
2013-04-19 09:20:00,71.1,66.4,29.93,South,178,6.0,8.0,85,0.00,,,0.00,Wunderground v.1.15,2013-04-19 13:20:00,
2013-04-19 09:30:00,72.1,67.0,29.92,SSE,160,8.0,8.0,84,0.00,,,0.00,Wunderground v.1.15,2013-04-19 13:30:00,
2013-04-19 09:35:00,72.4,67.3,29.92,South,179,8.0,8.0,84,0.00,,,0.00,Wunderground v.1.15,2013-04-19 13:35:00,
2013-04-19 09:40:00,72.5,67.4,29.91,SSE,151,7.0,11.0,84,0.00,,,0.00,Wunderground v.1.15,2013-04-19 13:40:00,
2013-04-19 09:50:00,72.7,67.6,29.91,SSW,209,6.0,6.0,84,0.00,,,0.00,Wunderground v.1.15,2013-04-19 13:50:00,
2013-04-19 09:55:00,72.6,67.1,29.91,SSE,165,7.0,7.0,83,0.00,,,0.00,Wunderground v.1.15,2013-04-19 13:55:00,
2013-04-19 10:00:00,72.6,67.5,29.91,South,173,8.0,9.0,84,0.00,,,0.00,Wunderground v.1.15,2013-04-19 14:00:00,
2013-04-19 10:05:00,72.6,67.5,29.91,SSW,195,8.0,9.0,84,0.00,,,0.00,Wunderground v.1.15,2013-04-19 14:05:00,
2013-04-19 10:15:00,72.9,67.4,29.90,SSE,167,9.0,10.0,83,0.00,,,0.00,Wunderground v.1.15,2013-04-19 14:15:00,
2013-04-19 10:20:00,73.2,67.7,29.90,South,184,9.0,9.0,83,0.00,,,0.00,Wunderground v.1.15,2013-04-19 14:20:00,
2013-04-19 10:30:00,73.6,67.4,29.90,South,191,9.0,9.0,81,0.00,,,0.00,Wunderground v.1.15,2013-04-19 14:30:00,
2013-04-19 10:35:00,73.7,66.8,29.90,South,172,9.0,9.0,79,0.00,,,0.00,Wunderground v.1.15,2013-04-19 14:35:00,
2013-04-19 10:45:00,74.3,67.0,29.89,SSE,159,7.0,10.0,78,0.00,,,0.00,Wunderground v.1.15,2013-04-19 14:45:00,
2013-04-19 10:55:00,74.7,66.6,29.88,South,183,9.0,10.0,76,0.00,,,0.00,Wunderground v.1.15,2013-04-19 14:55:00,
2013-04-19 11:00:00,75.0,66.1,29.89,SSE,167,10.0,14.0,74,0.00,,,0.00,Wunderground v.1.15,2013-04-19 15:00:00,
2013-04-19 11:10:00,75.1,66.2,29.88,SSW,200,12.0,12.0,74,0.00,,,0.00,Wunderground v.1.15,2013-04-19 15:10:00,
2013-04-19 11:20:00,75.4,66.5,29.88,SSW,205,9.0,14.0,74,0.00,,,0.00,Wunderground v.1.15,2013-04-19 15:20:00,
2013-04-19 11:25:00,75.5,66.6,29.88,SW,222,9.0,14.0,74,0.00,,,0.00,Wunderground v.1.15,2013-04-19 15:25:00,
2013-04-19 11:35:00,75.7,66.8,29.88,South,184,13.0,18.0,74,0.00,,,0.00,Wunderground v.1.15,2013-04-19 15:35:00,
2013-04-19 11:40:00,76.1,67.2,29.88,South,188,13.0,13.0,74,0.00,,,0.00,Wunderground v.1.15,2013-04-19 15:40:00,
2013-04-19 11:50:00,77.1,68.2,29.88,South,171,10.0,11.0,74,0.00,,,0.00,Wunderground v.1.15,2013-04-19 15:50:00,
2013-04-19 11:55:00,76.9,67.6,29.87,South,179,11.0,11.0,73,0.00,,,0.00,Wunderground v.1.15,2013-04-19 15:55:00,
2013-04-19 12:05:00,76.1,66.8,29.87,SSW,200,12.0,15.0,73,0.00,,,0.00,Wunderground v.1.15,2013-04-19 16:05:00,
2013-04-19 12:10:00,76.0,67.1,29.87,SSE,165,11.0,11.0,74,0.00,,,0.00,Wunderground v.1.15,2013-04-19 16:10:00,
2013-04-19 12:20:00,76.1,67.6,29.86,SE,146,11.0,15.0,75,0.00,,,0.00,Wunderground v.1.15,2013-04-19 16:20:00,
2013-04-19 12:25:00,76.2,66.9,29.86,South,179,12.0,15.0,73,0.00,,,0.00,Wunderground v.1.15,2013-04-19 16:25:00,
2013-04-19 12:35:00,76.5,67.2,29.86,SE,137,12.0,13.0,73,0.00,,,0.00,Wunderground v.1.15,2013-04-19 16:35:00,
2013-04-19 12:40:00,77.0,67.7,29.86,SSW,192,8.0,8.0,73,0.00,,,0.00,Wunderground v.1.15,2013-04-19 16:40:00,
2013-04-19 12:50:00,76.8,67.1,29.85,South,180,10.0,10.0,72,0.00,,,0.00,Wunderground v.1.15,2013-04-19 16:50:00,
2013-04-19 12:55:00,77.0,67.7,29.86,SSE,167,11.0,11.0,73,0.00,,,0.00,Wunderground v.1.15,2013-04-19 16:55:00,
2013-04-19 13:05:00,77.3,67.6,29.86,SSW,201,7.0,9.0,72,0.00,,,0.00,Wunderground v.1.15,2013-04-19 17:05:00,
2013-04-19 13:10:00,77.0,67.7,29.86,SE,128,7.0,10.0,73,0.00,,,0.00,Wunderground v.1.15,2013-04-19 17:10:00,
2013-04-19 13:15:00,76.8,67.5,29.86,South,172,9.0,10.0,73,0.00,,,0.00,Wunderground v.1.15,2013-04-19 17:15:00,
2013-04-19 13:20:00,76.7,67.4,29.87,South,176,9.0,11.0,73,0.00,,,0.00,Wunderground v.1.15,2013-04-19 17:20:00,
2013-04-19 13:30:00,76.4,67.5,29.87,SSE,166,7.0,7.0,74,0.00,,,0.00,Wunderground v.1.15,2013-04-19 17:30:00,
2013-04-19 13:40:00,75.8,67.3,29.87,SE,145,6.0,6.0,75,0.00,,,0.00,Wunderground v.1.15,2013-04-19 17:40:00,
2013-04-19 13:45:00,75.7,67.6,29.87,South,171,5.0,6.0,76,0.00,,,0.00,Wunderground v.1.15,2013-04-19 17:45:00,
2013-04-19 13:50:00,75.6,67.9,29.86,SW,226,5.0,6.0,77,0.00,,,0.00,Wunderground v.1.15,2013-04-19 17:50:00,
2013-04-19 14:00:00,75.3,68.0,29.87,SSW,199,6.0,6.0,78,0.00,,,0.00,Wunderground v.1.15,2013-04-19 18:00:00,
2013-04-19 14:10:00,74.8,67.8,29.86,South,185,6.0,9.0,79,0.00,,,0.00,Wunderground v.1.15,2013-04-19 18:10:00,
2013-04-19 14:15:00,74.7,67.8,29.86,South,188,7.0,9.0,79,0.00,,,0.00,Wunderground v.1.15,2013-04-19 18:15:00,
2013-04-19 14:25:00,74.1,68.3,29.87,SSW,208,6.0,7.0,82,0.00,,,0.00,Wunderground v.1.15,2013-04-19 18:25:00,
2013-04-19 14:30:00,73.6,68.5,29.87,South,184,3.0,3.0,84,0.00,,,0.01,Wunderground v.1.15,2013-04-19 18:30:00,
2013-04-19 14:35:00,72.8,68.7,29.87,SSW,204,3.0,4.0,87,0.10,,,0.02,Wunderground v.1.15,2013-04-19 18:35:00,
2013-04-19 14:45:00,71.7,68.6,29.87,South,182,2.0,4.0,90,0.40,,,0.06,Wunderground v.1.15,2013-04-19 18:45:00,
2013-04-19 14:55:00,70.9,68.8,29.87,WSW,252,4.0,4.0,93,0.09,,,0.07,Wunderground v.1.15,2013-04-19 18:55:00,
2013-04-19 15:05:00,69.0,66.9,29.89,WNW,284,7.0,9.0,93,1.29,,,0.21,Wunderground v.1.15,2013-04-19 19:05:00,
2013-04-19 15:10:00,68.1,66.6,29.88,WNW,292,7.0,7.0,95,1.04,,,0.29,Wunderground v.1.15,2013-04-19 19:10:00,
2013-04-19 15:15:00,67.6,66.1,29.89,SW,221,5.0,7.0,95,0.25,,,0.31,Wunderground v.1.15,2013-04-19 19:15:00,
2013-04-19 15:25:00,67.1,65.9,29.90,SSW,210,3.0,4.0,96,0.20,,,0.35,Wunderground v.1.15,2013-04-19 19:25:00,
2013-04-19 15:35:00,66.5,65.3,29.89,SW,234,3.0,4.0,96,0.17,,,0.39,Wunderground v.1.15,2013-04-19 19:35:00,
2013-04-19 15:40:00,65.8,64.6,29.88,SW,227,4.0,4.0,96,0.17,,,0.40,Wunderground v.1.15,2013-04-19 19:40:00,
2013-04-19 15:45:00,65.3,64.1,29.89,SW,221,4.0,4.0,96,0.11,,,0.41,Wunderground v.1.15,2013-04-19 19:45:00,
2013-04-19 15:55:00,64.7,63.5,29.88,South,186,2.0,3.0,96,0.17,,,0.43,Wunderground v.1.15,2013-04-19 19:55:00,
2013-04-19 16:05:00,64.4,63.5,29.87,South,186,2.0,3.0,97,0.12,,,0.46,Wunderground v.1.15,2013-04-19 20:05:00,
2013-04-19 16:10:00,64.4,63.5,29.86,South,186,1.0,1.0,97,0.13,,,0.47,Wunderground v.1.15,2013-04-19 20:10:00,
2013-04-19 16:15:00,64.5,63.6,29.87,South,186,0.0,1.0,97,0.10,,,0.48,Wunderground v.1.15,2013-04-19 20:15:00,
2013-04-19 16:25:00,64.8,63.9,29.87,WSW,238,1.0,1.0,97,0.06,,,0.48,Wunderground v.1.15,2013-04-19 20:25:00,
2013-04-19 16:30:00,64.9,64.0,29.88,West,263,1.0,1.0,97,0.06,,,0.49,Wunderground v.1.15,2013-04-19 20:30:00,
2013-04-19 16:35:00,64.8,63.9,29.88,WSW,258,2.0,2.0,97,0.06,,,0.49,Wunderground v.1.15,2013-04-19 20:35:00,
2013-04-19 16:40:00,64.8,64.2,29.88,WSW,238,2.0,2.0,98,0.04,,,0.49,Wunderground v.1.15,2013-04-19 20:40:00,
2013-04-19 16:50:00,64.5,63.6,29.88,WNW,286,3.0,3.0,97,0.00,,,0.49,Wunderground v.1.15,2013-04-19 20:50:00,
2013-04-19 16:55:00,64.2,63.3,29.89,WNW,294,4.0,4.0,97,0.00,,,0.49,Wunderground v.1.15,2013-04-19 20:55:00,
2013-04-19 17:00:00,63.2,62.3,29.89,WNW,294,5.0,5.0,97,0.00,,,0.49,Wunderground v.1.15,2013-04-19 21:00:00,
2013-04-19 17:05:00,62.6,61.7,29.90,SSW,202,5.0,5.0,97,0.00,,,0.49,Wunderground v.1.15,2013-04-19 21:05:00,
2013-04-19 17:15:00,62.2,61.3,29.90,WNW,300,3.0,4.0,97,0.00,,,0.49,Wunderground v.1.15,2013-04-19 21:15:00,
2013-04-19 17:25:00,62.0,61.1,29.90,WSW,237,4.0,5.0,97,0.00,,,0.49,Wunderground v.1.15,2013-04-19 21:25:00,
2013-04-19 17:35:00,61.4,60.5,29.90,North,355,3.0,8.0,97,0.00,,,0.49,Wunderground v.1.15,2013-04-19 21:35:00,
2013-04-19 17:40:00,60.3,59.4,29.90,North,355,5.0,5.0,97,0.00,,,0.49,Wunderground v.1.15,2013-04-19 21:40:00,
2013-04-19 17:50:00,59.0,58.2,29.91,WSW,252,4.0,4.0,97,0.00,,,0.50,Wunderground v.1.15,2013-04-19 21:50:00,
2013-04-19 18:00:00,59.0,58.2,29.91,West,262,3.0,3.0,97,0.00,,,0.50,Wunderground v.1.15,2013-04-19 22:00:00,
2013-04-19 18:05:00,58.8,58.0,29.91,NW,305,3.0,3.0,97,0.00,,,0.50,Wunderground v.1.15,2013-04-19 22:05:00,
2013-04-19 18:15:00,58.4,57.6,29.92,West,273,3.0,5.0,97,0.00,,,0.50,Wunderground v.1.15,2013-04-19 22:15:00,
2013-04-19 18:25:00,57.8,57.0,29.93,WNW,286,3.0,4.0,97,0.00,,,0.50,Wunderground v.1.15,2013-04-19 22:25:00,
2013-04-19 18:35:00,57.2,56.1,29.93,NW,319,3.0,7.0,96,0.00,,,0.50,Wunderground v.1.15,2013-04-19 22:35:00,
2013-04-19 18:40:00,56.8,55.7,29.93,NNW,333,4.0,4.0,96,0.00,,,0.50,Wunderground v.1.15,2013-04-19 22:40:00,
2013-04-19 18:45:00,56.4,55.3,29.93,WNW,295,4.0,4.0,96,0.00,,,0.50,Wunderground v.1.15,2013-04-19 22:45:00,
2013-04-19 18:55:00,56.0,54.9,29.92,NNW,329,3.0,4.0,96,0.00,,,0.50,Wunderground v.1.15,2013-04-19 22:55:00,
2013-04-19 19:05:00,55.7,54.6,29.93,WNW,289,2.0,3.0,96,0.00,,,0.50,Wunderground v.1.15,2013-04-19 23:05:00,
2013-04-19 19:10:00,55.7,54.6,29.93,West,272,2.0,2.0,96,0.00,,,0.50,Wunderground v.1.15,2013-04-19 23:10:00,
2013-04-19 19:15:00,55.5,54.4,29.94,NW,321,2.0,2.0,96,0.00,,,0.50,Wunderground v.1.15,2013-04-19 23:15:00,
2013-04-19 19:25:00,55.3,54.2,29.93,NW,319,2.0,4.0,96,0.00,,,0.51,Wunderground v.1.15,2013-04-19 23:25:00,
2013-04-19 19:30:00,55.1,54.0,29.92,North,360,2.0,2.0,96,0.00,,,0.51,Wunderground v.1.15,2013-04-19 23:30:00,
2013-04-19 19:40:00,54.9,54.1,29.91,WNW,286,1.0,2.0,97,0.05,,,0.52,Wunderground v.1.15,2013-04-19 23:40:00,
2013-04-19 19:45:00,54.8,53.7,29.91,NNW,342,1.0,2.0,96,0.04,,,0.52,Wunderground v.1.15,2013-04-19 23:45:00,
2013-04-19 19:55:00,54.7,53.9,29.93,NW,317,2.0,2.0,97,0.00,,,0.52,Wunderground v.1.15,2013-04-19 23:55:00,
2013-04-19 20:00:00,54.6,53.8,29.92,West,272,1.0,1.0,97,0.00,,,0.52,Wunderground v.1.15,2013-04-20 00:00:00,
2013-04-19 20:05:00,54.6,53.8,29.93,West,272,1.0,1.0,97,0.00,,,0.52,Wunderground v.1.15,2013-04-20 00:05:00,
2013-04-19 20:15:00,54.3,53.5,29.94,SW,215,1.0,7.0,97,0.00,,,0.52,Wunderground v.1.15,2013-04-20 00:15:00,
2013-04-19 20:25:00,53.5,52.4,29.95,SW,221,2.0,2.0,96,0.00,,,0.52,Wunderground v.1.15,2013-04-20 00:25:00,
2013-04-19 20:30:00,53.1,52.0,29.96,West,273,2.0,6.0,96,0.00,,,0.52,Wunderground v.1.15,2013-04-20 00:30:00,
2013-04-19 20:40:00,52.5,51.4,29.96,West,271,3.0,3.0,96,0.00,,,0.52,Wunderground v.1.15,2013-04-20 00:40:00,
2013-04-19 20:45:00,52.3,51.2,29.98,North,5,2.0,3.0,96,0.00,,,0.52,Wunderground v.1.15,2013-04-20 00:45:00,
2013-04-19 20:55:00,51.6,50.5,29.98,WSW,251,3.0,3.0,96,0.00,,,0.52,Wunderground v.1.15,2013-04-20 00:55:00,
2013-04-19 21:05:00,50.5,48.8,29.97,WSW,238,4.0,4.0,94,0.00,,,0.53,Wunderground v.1.15,2013-04-20 01:05:00,
2013-04-19 21:10:00,50.2,48.5,29.98,SW,222,2.0,2.0,94,0.00,,,0.53,Wunderground v.1.15,2013-04-20 01:10:00,
2013-04-19 21:15:00,49.9,48.5,29.99,WSW,257,2.0,3.0,95,0.00,,,0.53,Wunderground v.1.15,2013-04-20 01:15:00,
2013-04-19 21:20:00,49.7,48.3,30.01,WSW,251,3.0,5.0,95,0.00,,,0.53,Wunderground v.1.15,2013-04-20 01:20:00,
2013-04-19 21:30:00,49.6,48.2,30.01,WSW,238,2.0,5.0,95,0.00,,,0.54,Wunderground v.1.15,2013-04-20 01:30:00,
2013-04-19 21:35:00,49.5,48.1,30.00,WSW,242,3.0,5.0,95,0.00,,,0.54,Wunderground v.1.15,2013-04-20 01:35:00,
2013-04-19 21:40:00,49.5,48.1,30.01,West,281,3.0,3.0,95,0.00,,,0.54,Wunderground v.1.15,2013-04-20 01:40:00,
2013-04-19 21:50:00,49.4,48.0,30.01,SW,228,2.0,2.0,95,0.00,,,0.54,Wunderground v.1.15,2013-04-20 01:50:00,
2013-04-19 22:00:00,49.5,48.4,30.01,West,279,2.0,2.0,96,0.00,,,0.54,Wunderground v.1.15,2013-04-20 02:00:00,
2013-04-19 22:05:00,49.5,48.4,30.01,WNW,288,2.0,4.0,96,0.00,,,0.54,Wunderground v.1.15,2013-04-20 02:05:00,
2013-04-19 22:15:00,49.7,48.6,30.02,SSW,209,2.0,2.0,96,0.00,,,0.54,Wunderground v.1.15,2013-04-20 02:15:00,
2013-04-19 22:20:00,49.7,48.6,30.02,WNW,292,2.0,4.0,96,0.00,,,0.54,Wunderground v.1.15,2013-04-20 02:20:00,
2013-04-19 22:25:00,49.7,48.6,30.02,WSW,254,2.0,4.0,96,0.00,,,0.54,Wunderground v.1.15,2013-04-20 02:25:00,
2013-04-19 22:35:00,49.6,48.5,30.02,West,263,3.0,5.0,96,0.00,,,0.54,Wunderground v.1.15,2013-04-20 02:35:00,
2013-04-19 22:40:00,49.5,48.4,30.03,SSE,154,3.0,7.0,96,0.00,,,0.54,Wunderground v.1.15,2013-04-20 02:40:00,
2013-04-19 22:50:00,49.2,47.8,30.03,SW,220,3.0,3.0,95,0.00,,,0.54,Wunderground v.1.15,2013-04-20 02:50:00,
2013-04-19 22:55:00,49.0,47.6,30.03,West,280,2.0,3.0,95,0.00,,,0.54,Wunderground v.1.15,2013-04-20 02:55:00,
2013-04-19 23:05:00,48.8,47.4,30.03,SSW,194,3.0,5.0,95,0.00,,,0.54,Wunderground v.1.15,2013-04-20 03:05:00,
2013-04-19 23:10:00,48.7,47.3,30.03,West,261,3.0,6.0,95,0.00,,,0.54,Wunderground v.1.15,2013-04-20 03:10:00,
2013-04-19 23:15:00,48.7,47.3,30.02,SSW,205,2.0,6.0,95,0.00,,,0.54,Wunderground v.1.15,2013-04-20 03:15:00,
2013-04-19 23:25:00,48.6,47.2,30.03,West,265,3.0,3.0,95,0.00,,,0.54,Wunderground v.1.15,2013-04-20 03:25:00,
2013-04-19 23:30:00,48.6,47.2,30.03,West,260,3.0,5.0,95,0.00,,,0.54,Wunderground v.1.15,2013-04-20 03:30:00,
2013-04-19 23:40:00,48.6,47.2,30.03,NW,306,4.0,4.0,95,0.00,,,0.54,Wunderground v.1.15,2013-04-20 03:40:00,
2013-04-19 23:45:00,48.5,47.1,30.03,WNW,292,3.0,4.0,95,0.00,,,0.54,Wunderground v.1.15,2013-04-20 03:45:00,
2013-04-19 23:55:00,48.5,47.1,30.04,WSW,257,3.0,5.0,95,0.00,,,0.54,Wunderground v.1.15,2013-04-20 03:55:00,